createdAt,value
2023-05-06T00:04:32.567Z,98951.84
2023-05-06T00:09:34.780Z,98944.63
2023-05-06T00:14:36.818Z,98941.55
2023-05-06T00:19:38.793Z,98937.24
2023-05-06T00:24:40.756Z,98932.28
2023-05-06T00:29:42.427Z,98923.70
2023-05-06T00:34:44.246Z,98923.85
2023-05-06T00:39:45.858Z,98920.24
2023-05-06T00:44:47.832Z,98922.41
2023-05-06T00:49:51.395Z,98922.04
2023-05-06T00:54:54.092Z,98923.05
2023-05-06T00:59:55.739Z,98918.55
2023-05-06T01:04:58.668Z,98921.41
2023-05-06T01:10:24.447Z,98918.44
2023-05-06T01:15:33.353Z,98913.10
2023-05-06T01:20:38.337Z,98912.27
2023-05-06T01:25:41.034Z,98911.91
2023-05-06T01:30:59.606Z,98910.89
2023-05-06T01:36:15.900Z,98913.61
2023-05-06T01:41:19.468Z,98911.52
2023-05-06T01:46:24.291Z,98916.43
2023-05-06T01:51:26.062Z,98916.52
2023-05-06T01:56:30.311Z,98908.23
2023-05-06T02:01:32.147Z,98900.84
2023-05-06T02:06:34.746Z,98893.87
2023-05-06T02:11:36.817Z,98883.45
2023-05-06T02:16:41.382Z,98887.34
2023-05-06T02:21:43.087Z,98891.55
2023-05-06T02:26:44.886Z,98892.32
2023-05-06T02:31:46.609Z,98893.26
2023-05-06T02:36:50.371Z,98887.39
2023-05-06T02:41:51.996Z,98886.19
2023-05-06T02:46:53.892Z,98885.51
2023-05-06T02:51:55.800Z,98887.70
2023-05-06T02:56:57.487Z,98883.77
2023-05-06T03:01:59.156Z,98879.50
2023-05-06T03:07:00.845Z,98880.88
2023-05-06T03:12:02.900Z,98880.23
2023-05-06T03:17:04.869Z,98883.33
2023-05-06T03:22:07.714Z,98882.84
2023-05-06T03:27:10.476Z,98880.30
2023-05-06T03:32:12.849Z,98880.98
2023-05-06T03:37:17.210Z,98883.52
2023-05-06T03:42:23.085Z,98885.34
2023-05-06T03:47:25.623Z,98890.10
2023-05-06T03:52:27.872Z,98891.82
2023-05-06T03:57:30.019Z,98892.05
2023-05-06T04:02:35.182Z,98891.69
2023-05-06T04:07:37.799Z,98886.86
2023-05-06T04:12:39.722Z,98882.21
2023-05-06T04:17:42.122Z,98876.52
2023-05-06T04:22:44.359Z,98876.95
2023-05-06T04:27:46.938Z,98879.80
2023-05-06T04:32:48.885Z,98879.07
2023-05-06T04:37:51.300Z,98873.04
2023-05-06T04:42:58.580Z,98874.15
2023-05-06T04:48:01.394Z,98876.11
2023-05-06T04:53:03.864Z,98865.61
2023-05-06T04:58:05.627Z,98862.23
2023-05-06T05:03:07.633Z,98857.30
2023-05-06T05:08:10.076Z,98862.48
2023-05-06T05:13:13.898Z,98859.44
2023-05-06T05:18:15.925Z,98850.20
2023-05-06T05:23:18.577Z,98842.67
2023-05-06T05:28:20.535Z,98834.79
2023-05-06T05:33:22.542Z,98826.55
2023-05-06T05:38:25.258Z,98830.66
2023-05-06T05:43:27.622Z,98827.02
2023-05-06T05:48:31.021Z,98823.20
2023-05-06T05:53:32.881Z,98826.00
2023-05-06T05:58:35.079Z,98830.70
2023-05-06T06:03:38.288Z,98825.41
2023-05-06T06:08:40.836Z,98824.06
2023-05-06T06:13:43.313Z,98823.98
2023-05-06T06:18:45.366Z,98822.19
2023-05-06T06:23:47.196Z,98817.32
2023-05-06T06:28:49.353Z,98805.88
2023-05-06T06:33:51.361Z,98797.67
2023-05-06T06:38:53.108Z,98796.13
2023-05-06T06:43:54.788Z,98783.55
2023-05-06T06:49:03.547Z,98768.02
2023-05-06T06:54:05.275Z,98764.16
2023-05-06T06:59:07.699Z,98767.08
2023-05-06T07:04:09.812Z,98769.79
2023-05-06T07:09:12.050Z,98767.94
2023-05-06T07:14:13.871Z,98767.16
2023-05-06T07:19:15.593Z,98759.98
2023-05-06T07:24:17.364Z,98756.08
2023-05-06T07:29:19.068Z,98753.33
2023-05-06T07:34:20.788Z,98751.97
2023-05-06T07:39:22.628Z,98751.16
2023-05-06T07:44:24.294Z,98745.41
2023-05-06T07:49:28.737Z,98742.98
2023-05-06T07:54:31.795Z,98746.56
2023-05-06T07:59:33.708Z,98743.37
2023-05-06T08:04:36.141Z,98746.40
2023-05-06T08:09:38.007Z,98742.64
2023-05-06T08:14:39.657Z,98743.23
2023-05-06T08:19:41.259Z,98735.92
2023-05-06T08:24:43.211Z,98740.33
2023-05-06T08:29:44.876Z,98736.94
2023-05-06T08:34:46.785Z,98733.73
2023-05-06T08:39:48.488Z,98727.59
2023-05-06T08:44:52.293Z,98720.45
2023-05-06T08:49:53.979Z,98721.63
2023-05-06T08:55:01.358Z,98721.70
2023-05-06T09:00:04.930Z,98725.94
2023-05-06T09:05:08.203Z,98726.99
2023-05-06T09:10:14.389Z,98750.86
2023-05-06T09:15:16.494Z,98771.17
2023-05-06T09:20:18.159Z,98762.90
2023-05-06T09:25:20.462Z,98757.58
2023-05-06T09:30:22.153Z,98768.08
2023-05-06T09:35:28.999Z,98782.59
2023-05-06T09:40:31.711Z,98797.59
2023-05-06T09:45:33.577Z,98797.19
2023-05-06T09:50:36.583Z,98789.02
2023-05-06T09:55:39.735Z,98787.70
2023-05-06T10:00:42.304Z,98784.63
2023-05-06T10:05:46.145Z,98775.41
2023-05-06T10:10:49.899Z,98766.23
2023-05-06T10:15:52.643Z,98761.48
2023-05-06T10:20:55.516Z,98753.94
2023-05-06T10:26:01.200Z,98753.04
2023-05-06T10:31:05.169Z,98763.00
2023-05-06T10:36:22.576Z,98744.80
2023-05-06T10:41:27.815Z,98726.96
2023-05-06T10:46:30.097Z,98713.56
2023-05-06T10:51:31.725Z,98712.52
2023-05-06T10:56:35.860Z,98718.42
2023-05-06T11:01:40.069Z,98713.77
2023-05-06T11:06:47.738Z,98715.83
2023-05-06T11:12:03.918Z,98714.83
2023-05-06T11:17:28.486Z,98716.90
2023-05-06T11:22:40.912Z,98722.27
2023-05-06T11:27:42.734Z,98727.90
2023-05-06T11:32:46.851Z,98727.73
2023-05-06T11:37:48.645Z,98727.23
2023-05-06T11:42:50.407Z,98702.95
2023-05-06T11:47:54.605Z,98716.29
2023-05-06T11:52:56.355Z,98723.99
2023-05-06T11:57:58.229Z,98732.36
2023-05-06T12:02:59.918Z,98736.08
2023-05-06T12:08:01.839Z,98741.30
2023-05-06T12:13:05.816Z,98745.86
2023-05-06T12:18:07.728Z,98758.20
2023-05-06T12:23:14.716Z,98761.84
2023-05-06T12:28:22.767Z,98768.14
2023-05-06T12:33:24.400Z,98761.34
2023-05-06T12:38:26.057Z,98750.72
2023-05-06T12:43:32.849Z,98770.36
2023-05-06T12:48:34.849Z,98773.95
2023-05-06T12:53:36.600Z,98779.14
2023-05-06T12:58:39.813Z,98778.61
2023-05-06T13:03:41.692Z,98765.16
2023-05-06T13:08:43.877Z,98763.75
2023-05-06T13:13:45.550Z,98755.72
2023-05-06T13:18:47.222Z,98767.18
2023-05-06T13:23:49.425Z,98767.35
2023-05-06T13:28:51.624Z,98766.05
2023-05-06T13:33:53.262Z,98767.45
2023-05-06T13:38:55.135Z,98769.46
2023-05-06T13:43:56.870Z,98769.24
2023-05-06T13:48:58.637Z,98773.58
2023-05-06T13:54:01.256Z,98772.92
2023-05-06T13:59:02.903Z,98770.11
2023-05-06T14:04:04.777Z,98773.52
2023-05-06T14:09:06.776Z,98763.80
2023-05-06T14:14:08.440Z,98766.27
2023-05-06T14:19:10.272Z,98764.11
2023-05-06T14:24:12.579Z,98756.13
2023-05-06T14:29:14.273Z,98749.00
2023-05-06T14:34:15.959Z,98747.26
2023-05-06T14:39:17.668Z,98737.04
2023-05-06T14:44:19.316Z,98741.91
2023-05-06T14:49:21.305Z,98735.57
2023-05-06T14:54:23.067Z,98741.91
2023-05-06T14:59:24.687Z,98746.73
2023-05-06T15:04:27.424Z,98750.98
2023-05-06T15:09:29.197Z,98756.45
2023-05-06T15:14:30.986Z,98755.91
2023-05-06T15:19:33.480Z,98762.89
2023-05-06T15:24:35.984Z,98764.32
2023-05-06T15:29:39.301Z,98772.95
2023-05-06T15:34:40.962Z,98773.80
2023-05-06T15:39:42.849Z,98768.61
2023-05-06T15:44:46.722Z,98771.77
2023-05-06T15:49:54.795Z,98771.75
2023-05-06T15:55:13.511Z,98772.15
2023-05-06T16:00:16.558Z,98775.41
2023-05-06T16:05:18.243Z,98773.13
2023-05-06T16:10:20.062Z,98769.46
2023-05-06T16:15:21.771Z,98774.59
2023-05-06T16:20:23.467Z,98780.23
2023-05-06T16:25:29.178Z,98785.27
2023-05-06T16:30:30.914Z,98792.74
2023-05-06T16:35:32.966Z,98796.75
2023-05-06T16:40:41.548Z,98805.44
2023-05-06T16:45:45.270Z,98799.91
2023-05-06T16:50:47.087Z,98802.38
2023-05-06T16:55:49.575Z,98805.66
2023-05-06T17:00:54.047Z,98816.48
2023-05-06T17:05:55.717Z,98812.16
2023-05-06T17:10:57.490Z,98807.44
2023-05-06T17:15:59.305Z,98805.42
2023-05-06T17:21:02.115Z,98803.21
2023-05-06T17:26:09.657Z,98798.88
2023-05-06T17:31:12.213Z,98801.24
2023-05-06T17:36:16.716Z,98799.70
2023-05-06T17:41:18.389Z,98801.35
2023-05-06T17:46:20.316Z,98799.46
2023-05-06T17:51:22.271Z,98800.77
2023-05-06T17:56:23.901Z,98813.27
2023-05-06T18:01:25.545Z,98818.34
2023-05-06T18:06:27.881Z,98804.53
2023-05-06T18:11:29.647Z,98832.54
2023-05-06T18:16:31.689Z,98843.95
2023-05-06T18:21:35.012Z,98848.11
2023-05-06T18:26:44.862Z,98855.48
2023-05-06T18:31:47.816Z,98858.73
2023-05-06T18:36:49.934Z,98863.34
2023-05-06T18:41:52.782Z,98869.55
2023-05-06T18:46:54.483Z,98880.39
2023-05-06T18:51:56.169Z,98885.40
2023-05-06T18:56:58.656Z,98885.09
2023-05-06T19:02:01.919Z,98889.89
2023-05-06T19:07:04.369Z,98899.15
2023-05-06T19:12:06.152Z,98908.59
2023-05-06T19:17:07.885Z,98905.16
2023-05-06T19:22:09.521Z,98897.97
2023-05-06T19:27:11.206Z,98903.44
2023-05-06T19:32:13.070Z,98900.70
2023-05-06T19:37:14.845Z,98905.16
2023-05-06T19:42:16.567Z,98907.04
2023-05-06T19:47:19.436Z,98907.74
2023-05-06T19:52:21.240Z,98906.19
2023-05-06T19:57:23.364Z,98908.25
2023-05-06T20:02:25.388Z,98915.95
2023-05-06T20:07:27.217Z,98925.55
2023-05-06T20:12:30.155Z,98907.06
2023-05-06T20:17:31.922Z,98927.27
2023-05-06T20:22:33.580Z,98933.25
2023-05-06T20:27:35.279Z,98927.95
2023-05-06T20:32:40.394Z,98921.10
2023-05-06T20:37:42.530Z,98921.95
2023-05-06T20:42:44.169Z,98921.27
2023-05-06T20:47:45.935Z,98926.23
2023-05-06T20:52:47.754Z,98934.13
2023-05-06T20:57:49.953Z,98939.77
2023-05-06T21:02:51.895Z,98944.55
2023-05-06T21:07:55.355Z,98950.71
2023-05-06T21:13:01.432Z,98953.10
2023-05-06T21:18:03.439Z,98953.11
2023-05-06T21:23:05.283Z,98962.88
2023-05-06T21:28:07.033Z,98963.56
2023-05-06T21:33:11.363Z,98959.63
2023-05-06T21:38:13.317Z,98965.09
2023-05-06T21:43:17.978Z,98968.34
2023-05-06T21:48:37.771Z,98969.02
2023-05-06T21:53:39.409Z,98971.05
2023-05-06T21:58:41.123Z,98963.02
2023-05-06T22:03:45.318Z,98962.82
2023-05-06T22:08:47.212Z,98966.41
2023-05-06T22:13:49.035Z,98968.64
2023-05-06T22:18:51.866Z,98967.77
2023-05-06T22:23:53.598Z,98960.08
2023-05-06T22:28:56.253Z,98961.96
2023-05-06T22:34:03.554Z,98960.77
2023-05-06T22:39:05.606Z,98960.77
2023-05-06T22:44:07.468Z,98962.64
2023-05-06T22:49:09.876Z,98969.45
2023-05-06T22:54:11.724Z,98973.05
2023-05-06T22:59:13.701Z,98976.30
2023-05-06T23:04:15.874Z,98977.83
2023-05-06T23:09:18.534Z,98980.35
2023-05-06T23:14:26.918Z,98978.09
2023-05-06T23:19:28.602Z,98981.95
2023-05-06T23:24:30.279Z,98984.97
2023-05-06T23:29:32.054Z,98992.64
2023-05-06T23:34:37.079Z,98985.00
2023-05-06T23:39:39.208Z,98993.84
2023-05-06T23:44:41.611Z,98989.73
2023-05-06T23:49:51.321Z,98990.77
2023-05-06T23:54:52.989Z,98990.13
2023-05-06T23:59:54.678Z,98987.88
